createdAt,value
2024-01-20T00:00:08.203Z,8.00
2024-01-20T00:02:36.491Z,11.98
2024-01-20T00:05:05.502Z,15.07
2024-01-20T00:07:34.371Z,12.43
2024-01-20T00:10:03.051Z,8.55
2024-01-20T00:12:35.051Z,10.45
2024-01-20T00:15:06.325Z,11.30
2024-01-20T00:17:34.856Z,10.85
2024-01-20T00:20:04.038Z,8.40
2024-01-20T00:22:32.712Z,12.65
2024-01-20T00:25:03.392Z,13.07
2024-01-20T00:27:33.217Z,16.58
2024-01-20T00:30:02.323Z,187.02
2024-01-20T00:32:32.680Z,2250.00
2024-01-20T00:35:07.060Z,110.80
2024-01-20T00:37:38.821Z,2250.00
2024-01-20T00:40:09.151Z,205.20
2024-01-20T00:42:37.514Z,184.68
2024-01-20T00:45:07.305Z,123.22
2024-01-20T00:47:39.636Z,24.40
2024-01-20T00:50:09.675Z,2250.00
2024-01-20T00:52:38.260Z,183.77
2024-01-20T00:55:08.132Z,179.32
2024-01-20T00:57:36.711Z,174.27
2024-01-20T01:00:09.620Z,176.38
2024-01-20T01:02:39.759Z,173.60
2024-01-20T01:05:09.663Z,176.02
2024-01-20T01:07:38.520Z,177.60
2024-01-20T01:10:08.645Z,182.25
2024-01-20T01:12:37.665Z,190.20
2024-01-20T01:15:07.342Z,193.65
2024-01-20T01:17:35.726Z,193.57
2024-01-20T01:20:06.366Z,2250.00
2024-01-20T01:22:34.597Z,2250.00
2024-01-20T01:25:03.144Z,2250.00
2024-01-20T01:27:32.595Z,2250.00
2024-01-20T01:30:01.001Z,2250.00
2024-01-20T01:32:29.610Z,2250.00
2024-01-20T01:34:57.902Z,2250.00
2024-01-20T01:37:27.431Z,2250.00
2024-01-20T01:39:55.700Z,2250.00
2024-01-20T01:42:23.858Z,2250.00
2024-01-20T01:44:53.242Z,2250.00
2024-01-20T01:47:21.885Z,2250.00
2024-01-20T01:49:51.029Z,2250.00
2024-01-20T01:52:21.704Z,2250.00
2024-01-20T01:54:52.408Z,2250.00
2024-01-20T01:57:21.014Z,2250.00
2024-01-20T01:59:50.324Z,2250.00
2024-01-20T02:02:18.518Z,2250.00
2024-01-20T02:04:46.741Z,2250.00
2024-01-20T02:07:17.798Z,2250.00
2024-01-20T02:09:47.819Z,2250.00
2024-01-20T02:12:17.862Z,2250.00
2024-01-20T02:14:47.305Z,2250.00
2024-01-20T02:17:15.516Z,2250.00
2024-01-20T02:19:43.867Z,2250.00
2024-01-20T02:22:14.534Z,2250.00
2024-01-20T02:24:50.064Z,2250.00
2024-01-20T02:27:20.224Z,2250.00
2024-01-20T02:29:48.559Z,2250.00
2024-01-20T02:32:16.778Z,2250.00
2024-01-20T02:34:45.222Z,2250.00
2024-01-20T02:37:14.793Z,2250.00
2024-01-20T02:39:43.065Z,2250.00
2024-01-20T02:42:12.006Z,2250.00
2024-01-20T02:44:40.762Z,2250.00
2024-01-20T02:47:09.041Z,2250.00
2024-01-20T02:49:37.422Z,2250.00
2024-01-20T02:52:06.607Z,2250.00
2024-01-20T02:54:36.195Z,2250.00
2024-01-20T02:57:04.879Z,2250.00
2024-01-20T02:59:33.044Z,2250.00
2024-01-20T03:02:03.031Z,2250.00
2024-01-20T03:04:31.731Z,2250.00
2024-01-20T03:07:00.223Z,2250.00
2024-01-20T03:09:28.505Z,2250.00
2024-01-20T03:11:58.223Z,2250.00
2024-01-20T03:14:26.418Z,2250.00
2024-01-20T03:16:55.010Z,2250.00
2024-01-20T03:19:23.703Z,2250.00
2024-01-20T03:21:51.944Z,2250.00
2024-01-20T03:24:21.044Z,2250.00
2024-01-20T03:26:50.327Z,2250.00
2024-01-20T03:29:20.035Z,2250.00
2024-01-20T03:31:48.358Z,2250.00
2024-01-20T03:34:16.598Z,2250.00
2024-01-20T03:36:44.850Z,2250.00
2024-01-20T03:39:13.087Z,2250.00
2024-01-20T03:41:41.485Z,2250.00
2024-01-20T03:44:09.815Z,2250.00
2024-01-20T03:46:39.324Z,2250.00
2024-01-20T03:49:07.850Z,2250.00
2024-01-20T03:51:36.405Z,2250.00
2024-01-20T03:54:05.430Z,2250.00
2024-01-20T03:56:33.651Z,2250.00
2024-01-20T03:59:02.002Z,2250.00
2024-01-20T04:01:30.181Z,2250.00
2024-01-20T04:04:00.087Z,186.13
2024-01-20T04:06:28.551Z,2250.00
2024-01-20T04:08:56.805Z,166.40
2024-01-20T04:11:25.096Z,2250.00
2024-01-20T04:13:53.241Z,198.75
2024-01-20T04:16:21.597Z,152.80
2024-01-20T04:18:49.841Z,124.68
2024-01-20T04:21:19.439Z,111.07
2024-01-20T04:23:47.612Z,96.43
2024-01-20T04:26:15.907Z,87.90
2024-01-20T04:28:44.520Z,13.27
2024-01-20T04:31:12.679Z,11.77
2024-01-20T04:33:41.940Z,11.63
2024-01-20T04:36:11.427Z,12.95
2024-01-20T04:38:41.842Z,11.45
2024-01-20T04:41:10.070Z,10.60
2024-01-20T04:43:38.403Z,12.30
2024-01-20T04:46:06.585Z,12.35
2024-01-20T04:48:34.973Z,12.20
2024-01-20T04:51:03.262Z,11.05
2024-01-20T04:53:31.486Z,19.58
2024-01-20T04:56:04.519Z,11.75
2024-01-20T04:58:33.047Z,12.93
2024-01-20T05:01:01.245Z,18.38
2024-01-20T05:03:29.542Z,17.35
2024-01-20T05:05:58.016Z,12.18
2024-01-20T05:08:26.188Z,14.90
2024-01-20T05:10:54.346Z,15.57
2024-01-20T05:13:23.917Z,13.65
2024-01-20T05:15:53.643Z,13.55
2024-01-20T05:18:22.007Z,13.70
2024-01-20T05:20:50.345Z,13.57
2024-01-20T05:23:19.530Z,14.00
2024-01-20T05:25:47.739Z,14.80
2024-01-20T05:28:15.921Z,13.70
2024-01-20T05:30:45.544Z,12.60
2024-01-20T05:33:13.852Z,14.48
2024-01-20T05:35:42.160Z,16.02
2024-01-20T05:38:10.328Z,18.63
2024-01-20T05:40:38.606Z,13.27
2024-01-20T05:43:07.293Z,13.23
2024-01-20T05:45:35.612Z,14.07
2024-01-20T05:48:05.798Z,13.13
2024-01-20T05:50:34.028Z,15.30
2024-01-20T05:53:02.674Z,14.63
2024-01-20T05:55:30.831Z,16.13
2024-01-20T05:57:58.996Z,160.25
2024-01-20T06:00:27.270Z,64.70
2024-01-20T06:02:55.830Z,118.95
2024-01-20T06:05:25.878Z,129.15
2024-01-20T06:07:54.368Z,155.77
2024-01-20T06:10:22.662Z,164.95
2024-01-20T06:12:50.978Z,166.82
2024-01-20T06:15:19.165Z,170.63
2024-01-20T06:17:47.472Z,172.70
2024-01-20T06:20:16.723Z,176.18
2024-01-20T06:22:46.360Z,1187.05
2024-01-20T06:25:14.792Z,143.80
2024-01-20T06:27:43.275Z,191.13
2024-01-20T06:30:13.349Z,183.15
2024-01-20T06:32:41.768Z,185.25
2024-01-20T06:35:10.383Z,193.35
2024-01-20T06:37:38.736Z,2250.00
2024-01-20T06:40:10.247Z,2250.00
2024-01-20T06:42:38.577Z,2250.00
2024-01-20T06:45:08.080Z,2250.00
2024-01-20T06:47:36.434Z,2250.00
2024-01-20T06:50:05.378Z,201.65
2024-01-20T06:52:34.024Z,202.38
2024-01-20T06:55:02.533Z,204.40
2024-01-20T06:57:32.221Z,203.27
2024-01-20T07:00:00.799Z,204.48
2024-01-20T07:02:31.346Z,188.20
2024-01-20T07:04:59.759Z,187.70
2024-01-20T07:07:28.031Z,177.55
2024-01-20T07:09:56.533Z,174.18
2024-01-20T07:12:25.885Z,178.02
2024-01-20T07:14:56.070Z,174.57
2024-01-20T07:17:24.484Z,173.77
2024-01-20T07:19:52.753Z,172.48
2024-01-20T07:22:20.955Z,177.30
2024-01-20T07:24:49.171Z,174.60
2024-01-20T07:27:17.433Z,175.95
2024-01-20T07:29:45.671Z,189.65
2024-01-20T07:32:15.283Z,174.85
2024-01-20T07:34:43.539Z,175.27
2024-01-20T07:37:12.044Z,181.90
2024-01-20T07:39:40.272Z,180.20
2024-01-20T07:42:08.526Z,179.95
2024-01-20T07:44:36.723Z,184.77
2024-01-20T07:47:05.356Z,178.35
2024-01-20T07:49:35.060Z,180.10
2024-01-20T07:52:03.275Z,177.88
2024-01-20T07:54:31.530Z,181.15
2024-01-20T07:56:59.743Z,179.50
2024-01-20T07:59:30.132Z,183.40
2024-01-20T08:01:58.317Z,181.57
2024-01-20T08:04:26.577Z,190.73
2024-01-20T08:06:56.243Z,182.00
2024-01-20T08:09:24.667Z,185.57
2024-01-20T08:11:53.119Z,179.15
2024-01-20T08:14:21.336Z,174.90
2024-01-20T08:16:49.563Z,176.98
2024-01-20T08:19:17.892Z,178.15
2024-01-20T08:21:46.200Z,178.35
2024-01-20T08:24:16.137Z,178.90
2024-01-20T08:26:46.131Z,178.20
2024-01-20T08:29:14.713Z,176.20
2024-01-20T08:31:43.035Z,176.93
2024-01-20T08:34:11.282Z,177.70
2024-01-20T08:37:00.705Z,177.63
2024-01-20T08:39:30.309Z,179.85
2024-01-20T08:41:58.644Z,176.52
2024-01-20T08:44:26.875Z,176.93
2024-01-20T08:46:55.737Z,178.05
2024-01-20T08:49:24.300Z,185.55
2024-01-20T08:51:54.551Z,173.60
2024-01-20T08:54:22.897Z,176.10
2024-01-20T08:56:52.514Z,183.65
2024-01-20T08:59:20.965Z,177.45
2024-01-20T09:01:49.224Z,171.95
2024-01-20T09:04:17.448Z,174.20
2024-01-20T09:06:45.897Z,176.63
2024-01-20T09:09:14.502Z,172.40
2024-01-20T09:11:42.745Z,175.80
2024-01-20T09:14:13.341Z,170.00
2024-01-20T09:16:41.696Z,174.15
2024-01-20T09:19:10.100Z,170.13
2024-01-20T09:21:38.433Z,176.15
2024-01-20T09:24:07.248Z,170.10
2024-01-20T09:26:35.482Z,170.38
2024-01-20T09:29:03.678Z,175.98
2024-01-20T09:31:33.218Z,168.95
2024-01-20T09:34:01.544Z,170.55
2024-01-20T09:36:30.041Z,170.80
2024-01-20T09:38:58.362Z,165.90
2024-01-20T09:41:28.443Z,176.35
2024-01-20T09:43:56.819Z,166.27
2024-01-20T09:46:25.376Z,163.60
2024-01-20T09:48:56.822Z,164.13
2024-01-20T09:51:29.366Z,165.07
2024-01-20T09:54:00.555Z,167.47
2024-01-20T09:56:30.032Z,164.33
2024-01-20T09:59:01.542Z,171.47
2024-01-20T10:01:30.396Z,159.57
2024-01-20T10:04:05.324Z,158.77
2024-01-20T10:06:33.684Z,162.00
2024-01-20T10:09:02.041Z,161.10
2024-01-20T10:11:31.134Z,162.07
2024-01-20T10:13:59.332Z,158.83
2024-01-20T10:16:27.990Z,160.27
2024-01-20T10:18:56.278Z,160.50
2024-01-20T10:21:25.993Z,155.47
2024-01-20T10:23:54.635Z,155.70
2024-01-20T10:26:24.397Z,155.70
2024-01-20T10:28:56.105Z,161.67
2024-01-20T10:31:24.323Z,157.37
2024-01-20T10:33:53.367Z,155.37
2024-01-20T10:36:25.906Z,155.37
2024-01-20T10:38:55.780Z,160.27
2024-01-20T10:41:26.485Z,160.90
2024-01-20T10:44:02.656Z,158.67
2024-01-20T10:46:35.157Z,156.80
2024-01-20T10:49:10.513Z,154.67
2024-01-20T10:51:41.110Z,154.87
2024-01-20T10:54:10.745Z,155.00
2024-01-20T10:56:40.456Z,155.77
2024-01-20T10:59:17.060Z,154.67
2024-01-20T11:01:47.362Z,151.77
2024-01-20T11:04:21.037Z,151.20
2024-01-20T11:06:52.303Z,154.63
2024-01-20T11:09:22.769Z,152.43
2024-01-20T11:12:01.598Z,157.97
2024-01-20T11:14:30.804Z,154.70
2024-01-20T11:17:02.365Z,157.77
2024-01-20T11:19:32.563Z,152.23
2024-01-20T11:22:02.123Z,151.20
2024-01-20T11:24:41.290Z,151.50
2024-01-20T11:27:09.666Z,151.03
2024-01-20T11:29:37.901Z,149.57
2024-01-20T11:32:08.745Z,156.40
2024-01-20T11:34:36.964Z,149.03
2024-01-20T11:37:09.559Z,147.23
2024-01-20T11:39:37.857Z,147.97
2024-01-20T11:42:07.642Z,147.83
2024-01-20T11:44:36.761Z,145.77
2024-01-20T11:47:05.651Z,150.23
2024-01-20T11:49:36.996Z,145.13
2024-01-20T11:52:07.737Z,146.93
2024-01-20T11:54:36.113Z,145.20
2024-01-20T11:57:05.511Z,142.50
2024-01-20T11:59:33.863Z,154.80
2024-01-20T12:02:02.161Z,139.20
2024-01-20T12:04:31.153Z,138.83
2024-01-20T12:06:59.593Z,141.57
2024-01-20T12:09:30.400Z,140.07
2024-01-20T12:11:58.837Z,141.37
2024-01-20T12:14:27.969Z,135.17
2024-01-20T12:16:56.412Z,137.60
2024-01-20T12:19:25.289Z,138.50
2024-01-20T12:21:53.582Z,136.97
2024-01-20T12:24:21.816Z,131.83
2024-01-20T12:26:51.922Z,131.53
2024-01-20T12:29:20.252Z,130.03
2024-01-20T12:31:48.483Z,134.67
2024-01-20T12:34:18.088Z,130.67
2024-01-20T12:36:46.386Z,129.67
2024-01-20T12:39:14.696Z,131.40
2024-01-20T12:41:43.049Z,131.07
2024-01-20T12:44:12.730Z,130.90
2024-01-20T12:46:40.993Z,131.10
2024-01-20T12:49:09.357Z,135.53
2024-01-20T12:51:38.209Z,129.13
2024-01-20T12:54:06.806Z,128.97
2024-01-20T12:56:35.074Z,130.00
2024-01-20T12:59:03.525Z,137.20
2024-01-20T13:01:33.229Z,2266.67
2024-01-20T13:04:01.921Z,2266.67
2024-01-20T13:06:33.291Z,2266.67
2024-01-20T13:09:01.792Z,2266.67
2024-01-20T13:11:30.676Z,2266.67
2024-01-20T13:13:59.751Z,2266.67
2024-01-20T13:16:28.576Z,2266.67
2024-01-20T13:18:58.232Z,2266.67
2024-01-20T13:21:27.074Z,2266.67
2024-01-20T13:23:55.399Z,2266.67
2024-01-20T13:26:23.731Z,2266.67
2024-01-20T13:28:52.017Z,2266.67
2024-01-20T13:31:20.394Z,2266.67
2024-01-20T13:33:48.672Z,2266.67
2024-01-20T13:36:18.499Z,2266.67
2024-01-20T13:38:46.795Z,2266.67
2024-01-20T13:41:16.137Z,2266.67
2024-01-20T13:43:44.697Z,2266.67
2024-01-20T13:46:14.455Z,2266.67
2024-01-20T13:48:43.416Z,2266.67
2024-01-20T13:51:11.729Z,2266.67
2024-01-20T13:53:41.529Z,2266.67
2024-01-20T13:56:09.740Z,2266.67
2024-01-20T13:58:38.007Z,2266.67
2024-01-20T14:01:06.944Z,2266.67
2024-01-20T14:03:35.275Z,2266.67
2024-01-20T14:06:03.852Z,2266.67
2024-01-20T14:08:32.309Z,2266.67
2024-01-20T14:11:02.038Z,2266.67
2024-01-20T14:13:30.280Z,2266.67
2024-01-20T14:15:58.444Z,2266.67
2024-01-20T14:18:27.063Z,2266.67
2024-01-20T14:20:55.402Z,2266.67
2024-01-20T14:23:24.253Z,2266.67
2024-01-20T14:25:54.046Z,2266.67
2024-01-20T14:28:24.725Z,2266.67
2024-01-20T14:30:53.110Z,2266.67
2024-01-20T14:33:21.443Z,2266.67
2024-01-20T14:35:49.809Z,2266.67
2024-01-20T14:38:18.107Z,2266.67
2024-01-20T14:40:57.302Z,2266.67
2024-01-20T14:43:27.183Z,2266.67
2024-01-20T14:45:55.579Z,2266.67
2024-01-20T14:48:23.965Z,2266.67
2024-01-20T14:50:52.665Z,2266.67
2024-01-20T14:53:21.052Z,2266.67
2024-01-20T14:55:49.394Z,2266.67
2024-01-20T14:58:17.672Z,2266.67
2024-01-20T15:00:47.476Z,2266.67
2024-01-20T15:03:15.984Z,2266.67
2024-01-20T15:05:44.465Z,2266.67
2024-01-20T15:08:13.204Z,2266.67
2024-01-20T15:10:41.673Z,2266.67
2024-01-20T15:13:10.408Z,2266.67
2024-01-20T15:15:38.771Z,2266.67
2024-01-20T15:18:08.629Z,2266.67
2024-01-20T15:20:37.231Z,2266.67
2024-01-20T15:23:06.056Z,2266.67
2024-01-20T15:25:34.684Z,2266.67
2024-01-20T15:28:02.957Z,2266.67
2024-01-20T15:30:31.507Z,2266.67
2024-01-20T15:33:01.146Z,2250.00
2024-01-20T15:35:30.874Z,2250.00
2024-01-20T15:38:00.496Z,2266.67
2024-01-20T15:40:30.121Z,2250.00
2024-01-20T15:42:59.228Z,2250.00
2024-01-20T15:45:27.652Z,2250.00
2024-01-20T15:47:55.976Z,2266.67
2024-01-20T15:50:24.281Z,2250.00
2024-01-20T15:52:53.878Z,2266.67
2024-01-20T15:55:22.161Z,2266.67
2024-01-20T15:57:50.729Z,2250.00
2024-01-20T16:00:19.312Z,2250.00
2024-01-20T16:02:47.756Z,2250.00
2024-01-20T16:05:16.050Z,2250.00
2024-01-20T16:07:44.488Z,2250.00
2024-01-20T16:10:14.579Z,2250.00
2024-01-20T16:12:42.904Z,2250.00
2024-01-20T16:15:12.799Z,2250.00
2024-01-20T16:17:42.124Z,2250.00
2024-01-20T16:20:12.065Z,2250.00
2024-01-20T16:22:40.634Z,2250.00
2024-01-20T16:25:09.236Z,2250.00
2024-01-20T16:27:39.391Z,2250.00
2024-01-20T16:30:10.030Z,2250.00
2024-01-20T16:32:38.430Z,2250.00
2024-01-20T16:35:07.364Z,2250.00
2024-01-20T16:37:35.606Z,2250.00
2024-01-20T16:40:05.116Z,2250.00
2024-01-20T16:42:33.537Z,220.00
2024-01-20T16:45:03.637Z,2250.00
2024-01-20T16:47:32.185Z,201.90
2024-01-20T16:50:00.640Z,2250.00
2024-01-20T16:52:29.011Z,2250.00
2024-01-20T16:54:57.300Z,2250.00
2024-01-20T16:57:43.085Z,2250.00
2024-01-20T17:00:15.350Z,2250.00
2024-01-20T17:02:43.743Z,2250.00
2024-01-20T17:05:12.125Z,2250.00
2024-01-20T17:07:40.854Z,2250.00
2024-01-20T17:10:11.157Z,2250.00
2024-01-20T17:12:39.338Z,2250.00
2024-01-20T17:15:09.446Z,2250.00
2024-01-20T17:17:39.416Z,2250.00
2024-01-20T17:20:09.052Z,2250.00
2024-01-20T17:22:37.405Z,2250.00
2024-01-20T17:25:06.111Z,2250.00
2024-01-20T17:27:35.499Z,2250.00
2024-01-20T17:30:05.270Z,2250.00
2024-01-20T17:32:33.610Z,2250.00
2024-01-20T17:35:03.994Z,2250.00
2024-01-20T17:37:32.301Z,2250.00
2024-01-20T17:40:00.579Z,2250.00
2024-01-20T17:42:28.878Z,2250.00
2024-01-20T17:44:57.203Z,2250.00
2024-01-20T17:47:25.402Z,2250.00
2024-01-20T17:49:53.633Z,2250.00
2024-01-20T17:52:23.359Z,2250.00
2024-01-20T17:54:51.986Z,2250.00
2024-01-20T17:57:20.372Z,2250.00
2024-01-20T17:59:48.684Z,2250.00
2024-01-20T18:02:16.907Z,2250.00
2024-01-20T18:04:45.229Z,2250.00
2024-01-20T18:07:13.593Z,2250.00
2024-01-20T18:09:43.308Z,2250.00
2024-01-20T18:12:11.685Z,2250.00
2024-01-20T18:14:40.011Z,2250.00
2024-01-20T18:17:09.569Z,2250.00
2024-01-20T18:19:39.849Z,2250.00
2024-01-20T18:22:08.762Z,2250.00
2024-01-20T18:24:38.535Z,2250.00
2024-01-20T18:27:08.570Z,2250.00
2024-01-20T18:29:37.075Z,2250.00
2024-01-20T18:32:06.002Z,2250.00
2024-01-20T18:34:34.243Z,2250.00
2024-01-20T18:37:02.855Z,2250.00
2024-01-20T18:39:31.079Z,2250.00
2024-01-20T18:41:59.251Z,2250.00
2024-01-20T18:44:28.822Z,2250.00
2024-01-20T18:46:57.224Z,2250.00
2024-01-20T18:49:25.508Z,2250.00
2024-01-20T18:51:54.666Z,2250.00
2024-01-20T18:54:22.880Z,2250.00
2024-01-20T18:56:54.188Z,2250.00
2024-01-20T18:59:22.666Z,2250.00
2024-01-20T19:01:52.458Z,2250.00
2024-01-20T19:04:20.951Z,2250.00
2024-01-20T19:06:49.188Z,2250.00
2024-01-20T19:09:17.444Z,2250.00
2024-01-20T19:11:46.248Z,2250.00
2024-01-20T19:14:14.443Z,2250.00
2024-01-20T19:16:42.824Z,2250.00
2024-01-20T19:19:13.160Z,2250.00
2024-01-20T19:21:41.763Z,2250.00
2024-01-20T19:24:11.309Z,2250.00
2024-01-20T19:26:39.563Z,2250.00
2024-01-20T19:29:07.895Z,2250.00
2024-01-20T19:31:36.285Z,2250.00
2024-01-20T19:34:06.852Z,2250.00
2024-01-20T19:36:36.580Z,2250.00
2024-01-20T19:39:06.416Z,2250.00
2024-01-20T19:41:35.016Z,2250.00
2024-01-20T19:44:04.184Z,2250.00
2024-01-20T19:46:32.435Z,2250.00
2024-01-20T19:49:00.719Z,244.57
2024-01-20T19:51:29.006Z,2250.00
2024-01-20T19:53:58.640Z,2250.00
2024-01-20T19:56:26.904Z,2250.00
2024-01-20T19:58:55.466Z,1192.47
2024-01-20T20:01:23.744Z,2250.00
2024-01-20T20:03:52.203Z,2250.00
2024-01-20T20:06:20.502Z,2250.00
2024-01-20T20:08:48.798Z,2250.00
2024-01-20T20:11:19.936Z,2250.00
2024-01-20T20:13:48.147Z,2250.00
2024-01-20T20:16:16.509Z,1226.03
2024-01-20T20:18:44.864Z,2250.00
2024-01-20T20:21:15.809Z,2250.00
2024-01-20T20:23:44.075Z,2250.00
2024-01-20T20:26:12.458Z,2250.00
2024-01-20T20:28:41.990Z,2250.00
2024-01-20T20:31:11.046Z,2250.00
2024-01-20T20:33:39.627Z,2250.00
2024-01-20T20:36:08.415Z,2250.00
2024-01-20T20:38:36.849Z,2250.00
2024-01-20T20:41:05.527Z,2250.00
2024-01-20T20:43:35.127Z,235.13
2024-01-20T20:46:06.022Z,220.95
2024-01-20T20:48:34.296Z,2250.00
2024-01-20T20:51:02.464Z,2250.00
2024-01-20T20:53:31.166Z,2250.00
2024-01-20T20:56:00.073Z,2250.00
2024-01-20T20:58:29.357Z,2250.00
2024-01-20T21:00:58.738Z,2250.00
2024-01-20T21:03:28.550Z,2250.00
2024-01-20T21:05:57.393Z,2250.00
2024-01-20T21:08:25.657Z,2250.00
2024-01-20T21:10:54.025Z,206.82
2024-01-20T21:13:22.236Z,710.42
2024-01-20T21:15:50.461Z,2250.00
2024-01-20T21:18:18.801Z,2250.00
2024-01-20T21:20:49.147Z,2250.00
2024-01-20T21:23:17.839Z,2250.00
2024-01-20T21:25:46.199Z,2250.00
2024-01-20T21:28:17.462Z,2250.00
2024-01-20T21:30:45.922Z,2250.00
2024-01-20T21:33:14.302Z,2250.00
2024-01-20T21:35:42.831Z,2250.00
2024-01-20T21:38:13.793Z,2250.00
2024-01-20T21:40:45.384Z,54.42
2024-01-20T21:43:14.280Z,2250.00
2024-01-20T21:45:43.791Z,2250.00
2024-01-20T21:48:13.654Z,2250.00
2024-01-20T21:50:42.008Z,2250.00
2024-01-20T21:53:10.387Z,2250.00
2024-01-20T21:55:40.147Z,2250.00
2024-01-20T21:58:08.365Z,2250.00
2024-01-20T22:00:38.057Z,2250.00
2024-01-20T22:03:06.785Z,2250.00
2024-01-20T22:05:35.125Z,2250.00
2024-01-20T22:08:05.077Z,2250.00
2024-01-20T22:10:33.926Z,2250.00
2024-01-20T22:13:03.530Z,2250.00
2024-01-20T22:15:31.797Z,2250.00
2024-01-20T22:18:00.169Z,2250.00
2024-01-20T22:20:28.494Z,2250.00
2024-01-20T22:22:56.692Z,2250.00
2024-01-20T22:25:24.868Z,2250.00
2024-01-20T22:27:54.101Z,2250.00
2024-01-20T22:30:23.946Z,2250.00
2024-01-20T22:32:52.556Z,2250.00
2024-01-20T22:35:20.912Z,2250.00
2024-01-20T22:37:49.601Z,2250.00
2024-01-20T22:40:18.419Z,2250.00
2024-01-20T22:42:47.410Z,2250.00
2024-01-20T22:45:17.304Z,2250.00
2024-01-20T22:47:48.302Z,2250.00
2024-01-20T22:50:16.649Z,2250.00
2024-01-20T22:52:46.074Z,2250.00
2024-01-20T22:55:14.855Z,2250.00
2024-01-20T22:57:43.077Z,2250.00
2024-01-20T23:00:14.027Z,2250.00
2024-01-20T23:02:42.693Z,2250.00
2024-01-20T23:05:13.815Z,2250.00
2024-01-20T23:07:42.163Z,2250.00
2024-01-20T23:10:11.645Z,2250.00
2024-01-20T23:12:40.102Z,2250.00
2024-01-20T23:15:10.380Z,2250.00
2024-01-20T23:17:38.624Z,2250.00
2024-01-20T23:20:10.804Z,2250.00
2024-01-20T23:22:40.368Z,2250.00
2024-01-20T23:25:10.180Z,2250.00
2024-01-20T23:27:38.539Z,2250.00
2024-01-20T23:30:08.513Z,2250.00
2024-01-20T23:32:37.089Z,2250.00
2024-01-20T23:35:06.428Z,2250.00
2024-01-20T23:37:35.481Z,2250.00
2024-01-20T23:40:05.855Z,2250.00
2024-01-20T23:42:34.401Z,2250.00
2024-01-20T23:45:02.602Z,2250.00
2024-01-20T23:47:30.802Z,2250.00
2024-01-20T23:49:59.850Z,2250.00
2024-01-20T23:52:28.463Z,2250.00
2024-01-20T23:54:56.672Z,2250.00
2024-01-20T23:57:26.334Z,2250.00
2024-01-20T23:59:54.522Z,2250.00
